^^
Station Historical Data
Daily Summary for March 27, 2017 Units:  Both    English   Metric
« Previous Day
Next Day »
Daily Weekly Monthly Yearly Custom
  High: Low: Average:
Temperature: 87.4 °F /  30.8 °C 56.5 °F /  13.6 °C 70.9 °F /  21.6 °C
Dew Point: 56.7 °F /  13.7 °C 43.3 °F /  6.3 °C 52.4 °F /  11.3 °C
Humidity: 88% 22% 57%
Wind Speed: 6.9mph /  11.1km/h - 0.6mph /  1km/h
Wind Gust: 13.0mph /  20.9km/h - -
Wind- - SSE
Pressure: 29.94 in /  1013.8 hPa 29.83 in /  1010 hPa -
Precipitation: 0.00 in /  0 mm    
Historical Graphs
 
 
Tabular Data for March 27, 2017
Time Temperature Dew Point Pressure Wind Wind Speed Wind Gust Humidity Rainfall Rate (Hourly) solar Conditions
00:04 63.9 °F /  17.7 °C 54.0 °F /  12.2 °C 29.88in /  1011.7hPa Calm   1.0mph /  1.6km/h 70% 0.00in /  0mm 0.0 W/m2
00:10 63.7 °F /  17.6 °C 53.8 °F /  12.1 °C 29.88in /  1011.7hPa ESE 0.9mph /  1.4km/h 3.0mph /  4.8km/h 70% 0.00in /  0mm 0.0 W/m2
00:22 63.3 °F /  17.4 °C 53.4 °F /  11.9 °C 29.87in /  1011.4hPa Calm   1.0mph /  1.6km/h 70% 0.00in /  0mm 0.0 W/m2
00:28 63.1 °F /  17.3 °C 53.2 °F /  11.8 °C 29.88in /  1011.7hPa Calm     70% 0.00in /  0mm 0.0 W/m2
00:34 63.1 °F /  17.3 °C 53.6 °F /  12 °C 29.87in /  1011.4hPa Calm     71% 0.00in /  0mm 0.0 W/m2
00:40 62.8 °F /  17.1 °C 53.2 °F /  11.8 °C 29.88in /  1011.7hPa Calm     71% 0.00in /  0mm 0.0 W/m2
00:46 62.6 °F /  17 °C 53.1 °F /  11.7 °C 29.88in /  1011.7hPa Calm   1.0mph /  1.6km/h 71% 0.00in /  0mm 0.0 W/m2
00:52 62.4 °F /  16.9 °C 52.9 °F /  11.6 °C 29.88in /  1011.7hPa Calm   3.0mph /  4.8km/h 71% 0.00in /  0mm 0.0 W/m2
00:58 62.2 °F /  16.8 °C 53.1 °F /  11.7 °C 29.88in /  1011.7hPa Calm   2.0mph /  3.2km/h 72% 0.00in /  0mm 0.0 W/m2
01:04 62.1 °F /  16.7 °C 53.2 °F /  11.8 °C 29.87in /  1011.4hPa Calm   1.0mph /  1.6km/h 73% 0.00in /  0mm 0.0 W/m2
01:10 62.1 °F /  16.7 °C 53.2 °F /  11.8 °C 29.87in /  1011.4hPa Calm   2.0mph /  3.2km/h 73% 0.00in /  0mm 0.0 W/m2
01:16 62.1 °F /  16.7 °C 53.6 °F /  12 °C 29.87in /  1011.4hPa East 0.9mph /  1.4km/h 4.0mph /  6.4km/h 74% 0.00in /  0mm 0.0 W/m2
01:22 62.2 °F /  16.8 °C 53.8 °F /  12.1 °C 29.88in /  1011.7hPa ENE 2.0mph /  3.2km/h 4.0mph /  6.4km/h 74% 0.00in /  0mm 0.0 W/m2
01:28 62.2 °F /  16.8 °C 54.1 °F /  12.3 °C 29.88in /  1011.7hPa East 2.9mph /  4.7km/h 3.0mph /  4.8km/h 75% 0.00in /  0mm 0.0 W/m2
01:34 62.1 °F /  16.7 °C 54.0 °F /  12.2 °C 29.88in /  1011.7hPa ENE 2.0mph /  3.2km/h 2.0mph /  3.2km/h 75% 0.00in /  0mm 0.0 W/m2
01:40 62.1 °F /  16.7 °C 54.0 °F /  12.2 °C 29.88in /  1011.7hPa Calm   3.0mph /  4.8km/h 75% 0.00in /  0mm 0.0 W/m2
01:52 61.9 °F /  16.6 °C 53.8 °F /  12.1 °C 29.88in /  1011.7hPa Calm   1.0mph /  1.6km/h 75% 0.00in /  0mm 0.0 W/m2
01:58 61.9 °F /  16.6 °C 53.8 °F /  12.1 °C 29.88in /  1011.7hPa Calm   2.0mph /  3.2km/h 75% 0.00in /  0mm 0.0 W/m2
02:04 61.7 °F /  16.5 °C 53.2 °F /  11.8 °C 29.87in /  1011.4hPa ESE 0.9mph /  1.4km/h 1.0mph /  1.6km/h 74% 0.00in /  0mm 0.0 W/m2
02:11 61.5 °F /  16.4 °C 53.6 °F /  12 °C 29.87in /  1011.4hPa Calm     75% 0.00in /  0mm 0.0 W/m2
02:17 61.5 °F /  16.4 °C 53.6 °F /  12 °C 29.87in /  1011.4hPa Calm     75% 0.00in /  0mm 0.0 W/m2
02:23 61.3 °F /  16.3 °C 53.4 °F /  11.9 °C 29.88in /  1011.7hPa Calm     75% 0.00in /  0mm 0.0 W/m2
02:28 61.3 °F /  16.3 °C 53.8 °F /  12.1 °C 29.88in /  1011.7hPa Calm     76% 0.00in /  0mm 0.0 W/m2
02:35 61.2 °F /  16.2 °C 53.6 °F /  12 °C 29.87in /  1011.4hPa Calm     76% 0.00in /  0mm 0.0 W/m2
02:41 61.2 °F /  16.2 °C 53.6 °F /  12 °C 29.87in /  1011.4hPa Calm     76% 0.00in /  0mm 0.0 W/m2
02:47 61.0 °F /  16.1 °C 53.8 °F /  12.1 °C 29.87in /  1011.4hPa Calm     77% 0.00in /  0mm 0.0 W/m2
02:53 60.6 °F /  15.9 °C 53.4 °F /  11.9 °C 29.87in /  1011.4hPa Calm     77% 0.00in /  0mm 0.0 W/m2
02:59 60.4 °F /  15.8 °C 53.6 °F /  12 °C 29.87in /  1011.4hPa Calm   1.0mph /  1.6km/h 78% 0.00in /  0mm 0.0 W/m2
03:05 60.3 °F /  15.7 °C 53.4 °F /  11.9 °C 29.88in /  1011.7hPa Calm     78% 0.00in /  0mm 0.0 W/m2
03:11 60.3 °F /  15.7 °C 53.8 °F /  12.1 °C 29.88in /  1011.7hPa Calm     79% 0.00in /  0mm 0.0 W/m2
03:17 60.1 °F /  15.6 °C 53.6 °F /  12 °C 29.88in /  1011.7hPa Calm   2.0mph /  3.2km/h 79% 0.00in /  0mm 0.0 W/m2
03:23 59.9 °F /  15.5 °C 53.4 °F /  11.9 °C 29.87in /  1011.4hPa Calm     79% 0.00in /  0mm 0.0 W/m2
03:29 59.7 °F /  15.4 °C 53.2 °F /  11.8 °C 29.87in /  1011.4hPa Calm     79% 0.00in /  0mm 0.0 W/m2
03:35 59.7 °F /  15.4 °C 53.6 °F /  12 °C 29.87in /  1011.4hPa Calm     80% 0.00in /  0mm 0.0 W/m2
03:41 59.5 °F /  15.3 °C 53.4 °F /  11.9 °C 29.87in /  1011.4hPa Calm     80% 0.00in /  0mm 0.0 W/m2
03:47 59.5 °F /  15.3 °C 53.4 °F /  11.9 °C 29.87in /  1011.4hPa Calm     80% 0.00in /  0mm 0.0 W/m2
03:53 59.4 °F /  15.2 °C 53.2 °F /  11.8 °C 29.87in /  1011.4hPa Calm     80% 0.00in /  0mm 0.0 W/m2
03:59 59.2 °F /  15.1 °C 53.1 °F /  11.7 °C 29.87in /  1011.4hPa Calm     80% 0.00in /  0mm 0.0 W/m2
04:06 59.2 °F /  15.1 °C 53.4 °F /  11.9 °C 29.87in /  1011.4hPa Calm     81% 0.00in /  0mm 0.0 W/m2
04:12 59.0 °F /  15 °C 53.2 °F /  11.8 °C 29.87in /  1011.4hPa Calm     81% 0.00in /  0mm 0.0 W/m2
04:18 58.8 °F /  14.9 °C 53.1 °F /  11.7 °C 29.87in /  1011.4hPa Calm     81% 0.00in /  0mm 0.0 W/m2
04:24 58.6 °F /  14.8 °C 53.2 °F /  11.8 °C 29.87in /  1011.4hPa Calm     82% 0.00in /  0mm 0.0 W/m2
04:30 58.5 °F /  14.7 °C 53.1 °F /  11.7 °C 29.87in /  1011.4hPa Calm     82% 0.00in /  0mm 0.0 W/m2
04:36 58.5 °F /  14.7 °C 53.2 °F /  11.8 °C 29.87in /  1011.4hPa Calm     83% 0.00in /  0mm 0.0 W/m2
04:42 58.3 °F /  14.6 °C 53.1 °F /  11.7 °C 29.87in /  1011.4hPa Calm     83% 0.00in /  0mm 0.0 W/m2
04:49 58.3 °F /  14.6 °C 53.4 °F /  11.9 °C 29.87in /  1011.4hPa Calm     84% 0.00in /  0mm 0.0 W/m2
04:55 58.3 °F /  14.6 °C 53.4 °F /  11.9 °C 29.87in /  1011.4hPa Calm   1.0mph /  1.6km/h 84% 0.00in /  0mm 0.0 W/m2
05:01 57.9 °F /  14.4 °C 53.1 °F /  11.7 °C 29.87in /  1011.4hPa East 0.9mph /  1.4km/h 2.0mph /  3.2km/h 84% 0.00in /  0mm 0.0 W/m2
05:07 57.9 °F /  14.4 °C 53.1 °F /  11.7 °C 29.86in /  1011.1hPa Calm     84% 0.00in /  0mm 0.0 W/m2
05:13 57.9 °F /  14.4 °C 53.1 °F /  11.7 °C 29.86in /  1011.1hPa Calm   1.0mph /  1.6km/h 84% 0.00in /  0mm 0.0 W/m2
05:19 57.9 °F /  14.4 °C 53.1 °F /  11.7 °C 29.87in /  1011.4hPa NNE 0.9mph /  1.4km/h 2.0mph /  3.2km/h 84% 0.00in /  0mm 0.0 W/m2
05:25 57.9 °F /  14.4 °C 53.1 °F /  11.7 °C 29.87in /  1011.4hPa Calm   1.0mph /  1.6km/h 84% 0.00in /  0mm 0.0 W/m2
05:31 57.7 °F /  14.3 °C 52.9 °F /  11.6 °C 29.87in /  1011.4hPa Calm   2.0mph /  3.2km/h 84% 0.00in /  0mm 0.0 W/m2
05:37 57.7 °F /  14.3 °C 53.2 °F /  11.8 °C 29.87in /  1011.4hPa Calm   3.0mph /  4.8km/h 85% 0.00in /  0mm 0.0 W/m2
05:43 57.7 °F /  14.3 °C 53.2 °F /  11.8 °C 29.87in /  1011.4hPa Calm   2.0mph /  3.2km/h 85% 0.00in /  0mm 0.0 W/m2
05:49 57.7 °F /  14.3 °C 52.9 °F /  11.6 °C 29.87in /  1011.4hPa Calm   1.0mph /  1.6km/h 84% 0.00in /  0mm 0.0 W/m2
05:55 57.6 °F /  14.2 °C 53.1 °F /  11.7 °C 29.88in /  1011.7hPa Calm   1.0mph /  1.6km/h 85% 0.00in /  0mm 0.0 W/m2
06:02 57.6 °F /  14.2 °C 53.1 °F /  11.7 °C 29.88in /  1011.7hPa Calm     85% 0.00in /  0mm 0.0 W/m2
06:08 57.4 °F /  14.1 °C 52.9 °F /  11.6 °C 29.88in /  1011.7hPa Calm   1.0mph /  1.6km/h 85% 0.00in /  0mm 0.0 W/m2
06:14 57.2 °F /  14 °C 52.7 °F /  11.5 °C 29.88in /  1011.7hPa Calm   1.0mph /  1.6km/h 85% 0.00in /  0mm 0.0 W/m2
06:20 57.0 °F /  13.9 °C 52.9 °F /  11.6 °C 29.88in /  1011.7hPa Calm   1.0mph /  1.6km/h 86% 0.00in /  0mm 0.0 W/m2
06:26 57.2 °F /  14 °C 53.1 °F /  11.7 °C 29.88in /  1011.7hPa Calm     86% 0.00in /  0mm 0.0 W/m2
06:32 57.0 °F /  13.9 °C 52.5 °F /  11.4 °C 29.88in /  1011.7hPa Calm     85% 0.00in /  0mm 0.0 W/m2
06:41 57.0 °F /  13.9 °C 52.9 °F /  11.6 °C 29.89in /  1012.1hPa Calm     86% 0.00in /  0mm 0.0 W/m2
06:47 57.0 °F /  13.9 °C 52.9 °F /  11.6 °C 29.89in /  1012.1hPa Calm   1.0mph /  1.6km/h 86% 0.00in /  0mm 0.0 W/m2
06:53 56.8 °F /  13.8 °C 52.3 °F /  11.3 °C 29.89in /  1012.1hPa Calm   1.0mph /  1.6km/h 85% 0.00in /  0mm 0.0 W/m2
06:59 56.8 °F /  13.8 °C 52.3 °F /  11.3 °C 29.89in /  1012.1hPa Calm   3.0mph /  4.8km/h 85% 0.00in /  0mm 0.0 W/m2
07:05 56.7 °F /  13.7 °C 52.5 °F /  11.4 °C 29.90in /  1012.4hPa Calm     86% 0.00in /  0mm 5.0 W/m2
07:11 56.7 °F /  13.7 °C 52.5 °F /  11.4 °C 29.90in /  1012.4hPa Calm     86% 0.00in /  0mm 7.0 W/m2
07:17 56.7 °F /  13.7 °C 52.5 °F /  11.4 °C 29.90in /  1012.4hPa Calm   1.0mph /  1.6km/h 86% 0.00in /  0mm 9.0 W/m2
07:23 56.5 °F /  13.6 °C 52.3 °F /  11.3 °C 29.90in /  1012.4hPa Calm   1.0mph /  1.6km/h 86% 0.00in /  0mm 11.0 W/m2
07:30 56.7 °F /  13.7 °C 52.9 °F /  11.6 °C 29.90in /  1012.4hPa Calm   2.0mph /  3.2km/h 87% 0.00in /  0mm 12.0 W/m2
07:36 56.7 °F /  13.7 °C 52.9 °F /  11.6 °C 29.91in /  1012.8hPa Calm     87% 0.00in /  0mm 14.0 W/m2
07:42 56.8 °F /  13.8 °C 53.1 °F /  11.7 °C 29.91in /  1012.8hPa ENE 0.9mph /  1.4km/h 2.0mph /  3.2km/h 87% 0.00in /  0mm 16.0 W/m2
07:48 57.0 °F /  13.9 °C 53.4 °F /  11.9 °C 29.91in /  1012.8hPa ENE 2.9mph /  4.7km/h 5.0mph /  8km/h 88% 0.00in /  0mm 18.0 W/m2
07:54 57.6 °F /  14.2 °C 54.0 °F /  12.2 °C 29.91in /  1012.8hPa Calm   3.0mph /  4.8km/h 88% 0.00in /  0mm 18.0 W/m2
08:00 57.9 °F /  14.4 °C 54.1 °F /  12.3 °C 29.91in /  1012.8hPa East 0.9mph /  1.4km/h 2.0mph /  3.2km/h 87% 0.00in /  0mm 19.0 W/m2
08:06 58.5 °F /  14.7 °C 54.7 °F /  12.6 °C 29.91in /  1012.8hPa Calm   2.0mph /  3.2km/h 87% 0.00in /  0mm 19.0 W/m2
08:12 59.2 °F /  15.1 °C 55.0 °F /  12.8 °C 29.92in /  1013.1hPa Calm   3.0mph /  4.8km/h 86% 0.00in /  0mm 21.0 W/m2
08:19 59.7 °F /  15.4 °C 55.2 °F /  12.9 °C 29.92in /  1013.1hPa Calm     85% 0.00in /  0mm 21.0 W/m2
08:25 60.3 °F /  15.7 °C 55.0 °F /  12.8 °C 29.92in /  1013.1hPa Calm     83% 0.00in /  0mm 23.0 W/m2
08:31 60.8 °F /  16 °C 55.2 °F /  12.9 °C 29.92in /  1013.1hPa Calm     82% 0.00in /  0mm 23.0 W/m2
08:37 61.5 °F /  16.4 °C 55.6 °F /  13.1 °C 29.93in /  1013.4hPa Calm     81% 0.00in /  0mm 25.0 W/m2
08:43 62.1 °F /  16.7 °C 55.4 °F /  13 °C 29.93in /  1013.4hPa Calm     79% 0.00in /  0mm 25.0 W/m2
08:49 63.1 °F /  17.3 °C 55.4 °F /  13 °C 29.93in /  1013.4hPa Calm   1.0mph /  1.6km/h 76% 0.00in /  0mm 26.0 W/m2
08:55 64.0 °F /  17.8 °C 55.6 °F /  13.1 °C 29.93in /  1013.4hPa Calm   1.0mph /  1.6km/h 74% 0.00in /  0mm 28.0 W/m2
09:01 64.9 °F /  18.3 °C 55.4 °F /  13 °C 29.93in /  1013.4hPa Calm   1.0mph /  1.6km/h 71% 0.00in /  0mm 30.0 W/m2
09:08 65.7 °F /  18.7 °C 55.6 °F /  13.1 °C 29.93in /  1013.4hPa Calm     70% 0.00in /  0mm 28.0 W/m2
09:14 66.4 °F /  19.1 °C 55.9 °F /  13.3 °C 29.93in /  1013.4hPa Calm   1.0mph /  1.6km/h 69% 0.00in /  0mm 32.0 W/m2
09:20 67.1 °F /  19.5 °C 56.1 °F /  13.4 °C 29.93in /  1013.4hPa Calm     68% 0.00in /  0mm 30.0 W/m2
09:26 67.8 °F /  19.9 °C 56.5 °F /  13.6 °C 29.93in /  1013.4hPa Calm     67% 0.00in /  0mm 32.0 W/m2
09:32 68.5 °F /  20.3 °C 56.7 °F /  13.7 °C 29.94in /  1013.8hPa Calm   1.0mph /  1.6km/h 66% 0.00in /  0mm 33.0 W/m2
09:39 69.4 °F /  20.8 °C 56.7 °F /  13.7 °C 29.94in /  1013.8hPa Calm     64% 0.00in /  0mm 33.0 W/m2
09:45 70.2 °F /  21.2 °C 56.5 °F /  13.6 °C 29.94in /  1013.8hPa Calm   1.0mph /  1.6km/h 62% 0.00in /  0mm 49.0 W/m2
09:51 71.1 °F /  21.7 °C 55.9 °F /  13.3 °C 29.93in /  1013.4hPa WSW 2.9mph /  4.7km/h 3.0mph /  4.8km/h 59% 0.00in /  0mm 628.0 W/m2
09:57 72.1 °F /  22.3 °C 56.5 °F /  13.6 °C 29.94in /  1013.8hPa Calm   1.0mph /  1.6km/h 58% 0.00in /  0mm 638.0 W/m2
10:03 73.0 °F /  22.8 °C 55.9 °F /  13.3 °C 29.94in /  1013.8hPa North 2.9mph /  4.7km/h 4.0mph /  6.4km/h 55% 0.00in /  0mm 666.0 W/m2
10:09 74.7 °F /  23.7 °C 54.9 °F /  12.7 °C 29.94in /  1013.8hPa NNW 0.9mph /  1.4km/h 2.0mph /  3.2km/h 50% 0.00in /  0mm 682.0 W/m2
10:15 76.3 °F /  24.6 °C 54.5 °F /  12.5 °C 29.94in /  1013.8hPa North 0.9mph /  1.4km/h 3.0mph /  4.8km/h 47% 0.00in /  0mm 696.0 W/m2
10:21 77.4 °F /  25.2 °C 54.3 °F /  12.4 °C 29.94in /  1013.8hPa NNE 2.0mph /  3.2km/h 4.0mph /  6.4km/h 45% 0.00in /  0mm 717.0 W/m2
10:27 78.3 °F /  25.7 °C 54.5 °F /  12.5 °C 29.94in /  1013.8hPa Calm   3.0mph /  4.8km/h 44% 0.00in /  0mm 729.0 W/m2
10:34 78.4 °F /  25.8 °C 54.7 °F /  12.6 °C 29.94in /  1013.8hPa Calm   1.0mph /  1.6km/h 44% 0.00in /  0mm 752.0 W/m2
10:40 78.4 °F /  25.8 °C 54.7 °F /  12.6 °C 29.94in /  1013.8hPa NE 2.0mph /  3.2km/h 4.0mph /  6.4km/h 44% 0.00in /  0mm 160.0 W/m2
10:46 78.1 °F /  25.6 °C 54.3 °F /  12.4 °C 29.94in /  1013.8hPa NNE 0.9mph /  1.4km/h 5.0mph /  8km/h 44% 0.00in /  0mm 135.0 W/m2
10:52 77.4 °F /  25.2 °C 54.3 °F /  12.4 °C 29.94in /  1013.8hPa NNW 2.0mph /  3.2km/h 4.0mph /  6.4km/h 45% 0.00in /  0mm 158.0 W/m2
10:58 76.8 °F /  24.9 °C 54.5 °F /  12.5 °C 29.94in /  1013.8hPa NNW 2.0mph /  3.2km/h 5.0mph /  8km/h 46% 0.00in /  0mm 188.0 W/m2
11:04 77.0 °F /  25 °C 55.2 °F /  12.9 °C 29.94in /  1013.8hPa Calm   2.0mph /  3.2km/h 47% 0.00in /  0mm 909.0 W/m2
11:10 77.7 °F /  25.4 °C 54.1 °F /  12.3 °C 29.93in /  1013.4hPa Calm   4.0mph /  6.4km/h 44% 0.00in /  0mm 902.0 W/m2
11:16 78.4 °F /  25.8 °C 52.7 °F /  11.5 °C 29.93in /  1013.4hPa Calm   1.0mph /  1.6km/h 41% 0.00in /  0mm 909.0 W/m2
11:22 78.6 °F /  25.9 °C 54.9 °F /  12.7 °C 29.93in /  1013.4hPa Calm   1.0mph /  1.6km/h 44% 0.00in /  0mm 925.0 W/m2
11:29 79.9 °F /  26.6 °C 52.7 °F /  11.5 °C 29.93in /  1013.4hPa NW 2.0mph /  3.2km/h 5.0mph /  8km/h 39% 0.00in /  0mm 972.0 W/m2
11:35 80.8 °F /  27.1 °C 52.2 °F /  11.2 °C 29.93in /  1013.4hPa West 2.0mph /  3.2km/h 2.0mph /  3.2km/h 37% 0.00in /  0mm 742.0 W/m2
11:41 81.1 °F /  27.3 °C 51.6 °F /  10.9 °C 29.93in /  1013.4hPa NNE 0.9mph /  1.4km/h 4.0mph /  6.4km/h 36% 0.00in /  0mm 981.0 W/m2
11:47 82.0 °F /  27.8 °C 48.4 °F /  9.1 °C 29.93in /  1013.4hPa ESE 2.9mph /  4.7km/h 10.0mph /  16.1km/h 31% 0.00in /  0mm 951.0 W/m2
11:53 82.8 °F /  28.2 °C 47.3 °F /  8.5 °C 29.93in /  1013.4hPa East 2.0mph /  3.2km/h 9.0mph /  14.5km/h 29% 0.00in /  0mm 937.0 W/m2
11:59 83.1 °F /  28.4 °C 47.7 °F /  8.7 °C 29.93in /  1013.4hPa SSE 0.9mph /  1.4km/h 9.0mph /  14.5km/h 29% 0.00in /  0mm 935.0 W/m2
12:05 83.1 °F /  28.4 °C 45.7 °F /  7.6 °C 29.93in /  1013.4hPa Calm   5.0mph /  8km/h 27% 0.00in /  0mm 944.0 W/m2
12:11 83.7 °F /  28.7 °C 48.0 °F /  8.9 °C 29.92in /  1013.1hPa ESE 2.0mph /  3.2km/h 8.0mph /  12.9km/h 29% 0.00in /  0mm 949.0 W/m2
12:18 84.4 °F /  29.1 °C 46.8 °F /  8.2 °C 29.92in /  1013.1hPa North 6.0mph /  9.7km/h 7.0mph /  11.3km/h 27% 0.00in /  0mm 962.0 W/m2
12:24 84.6 °F /  29.2 °C 45.0 °F /  7.2 °C 29.92in /  1013.1hPa NNW 4.9mph /  7.9km/h 9.0mph /  14.5km/h 25% 0.00in /  0mm 965.0 W/m2
12:30 84.7 °F /  29.3 °C 46.0 °F /  7.8 °C 29.92in /  1013.1hPa NNE 4.0mph /  6.4km/h 8.0mph /  12.9km/h 26% 0.00in /  0mm 1044.0 W/m2
12:36 84.7 °F /  29.3 °C 47.1 °F /  8.4 °C 29.92in /  1013.1hPa SE 2.0mph /  3.2km/h 6.0mph /  9.7km/h 27% 0.00in /  0mm 1035.0 W/m2
12:42 84.6 °F /  29.2 °C 46.9 °F /  8.3 °C 29.91in /  1012.8hPa North 2.0mph /  3.2km/h 7.0mph /  11.3km/h 27% 0.00in /  0mm 1048.0 W/m2
12:48 85.3 °F /  29.6 °C 48.6 °F /  9.2 °C 29.91in /  1012.8hPa East 4.0mph /  6.4km/h 9.0mph /  14.5km/h 28% 0.00in /  0mm 1042.0 W/m2
12:54 85.5 °F /  29.7 °C 46.6 °F /  8.1 °C 29.91in /  1012.8hPa SE 0.9mph /  1.4km/h 3.0mph /  4.8km/h 26% 0.00in /  0mm 1056.0 W/m2
13:01 84.9 °F /  29.4 °C 46.2 °F /  7.9 °C 29.91in /  1012.8hPa Calm   1.0mph /  1.6km/h 26% 0.00in /  0mm 1056.0 W/m2
13:07 84.4 °F /  29.1 °C 47.7 °F /  8.7 °C 29.91in /  1012.8hPa NNE 0.9mph /  1.4km/h 6.0mph /  9.7km/h 28% 0.00in /  0mm 1074.0 W/m2
13:13 85.3 °F /  29.6 °C 47.5 °F /  8.6 °C 29.90in /  1012.4hPa NNW 2.9mph /  4.7km/h 7.0mph /  11.3km/h 27% 0.00in /  0mm 1039.0 W/m2
13:19 85.8 °F /  29.9 °C 46.9 °F /  8.3 °C 29.90in /  1012.4hPa North 2.0mph /  3.2km/h 4.0mph /  6.4km/h 26% 0.00in /  0mm 1041.0 W/m2
13:25 86.4 °F /  30.2 °C 47.5 °F /  8.6 °C 29.90in /  1012.4hPa Calm   6.0mph /  9.7km/h 26% 0.00in /  0mm 1005.0 W/m2
13:31 86.2 °F /  30.1 °C 47.3 °F /  8.5 °C 29.90in /  1012.4hPa Calm   5.0mph /  8km/h 26% 0.00in /  0mm 1037.0 W/m2
13:37 85.5 °F /  29.7 °C 45.7 °F /  7.6 °C 29.89in /  1012.1hPa SW 0.9mph /  1.4km/h 2.0mph /  3.2km/h 25% 0.00in /  0mm 223.0 W/m2
13:43 84.4 °F /  29.1 °C 47.7 °F /  8.7 °C 29.89in /  1012.1hPa SE 0.9mph /  1.4km/h 2.0mph /  3.2km/h 28% 0.00in /  0mm 1034.0 W/m2
13:50 84.9 °F /  29.4 °C 44.1 °F /  6.7 °C 29.89in /  1012.1hPa North 2.9mph /  4.7km/h 4.0mph /  6.4km/h 24% 0.00in /  0mm 1004.0 W/m2
13:56 85.6 °F /  29.8 °C 44.8 °F /  7.1 °C 29.88in /  1011.7hPa NNE 6.9mph /  11.1km/h 7.0mph /  11.3km/h 24% 0.00in /  0mm 974.0 W/m2
14:02 86.0 °F /  30 °C 45.0 °F /  7.2 °C 29.88in /  1011.7hPa Calm   3.0mph /  4.8km/h 24% 0.00in /  0mm 134.0 W/m2
14:08 85.6 °F /  29.8 °C 46.8 °F /  8.2 °C 29.88in /  1011.7hPa SSE 2.0mph /  3.2km/h 6.0mph /  9.7km/h 26% 0.00in /  0mm 186.0 W/m2
14:14 85.6 °F /  29.8 °C 46.8 °F /  8.2 °C 29.88in /  1011.7hPa Calm   4.0mph /  6.4km/h 26% 0.00in /  0mm 937.0 W/m2
14:20 86.2 °F /  30.1 °C 47.3 °F /  8.5 °C 29.88in /  1011.7hPa SE 2.0mph /  3.2km/h 5.0mph /  8km/h 26% 0.00in /  0mm 937.0 W/m2
14:27 86.7 °F /  30.4 °C 45.7 °F /  7.6 °C 29.88in /  1011.7hPa NNW 4.0mph /  6.4km/h 7.0mph /  11.3km/h 24% 0.00in /  0mm 911.0 W/m2
14:33 86.7 °F /  30.4 °C 45.7 °F /  7.6 °C 29.87in /  1011.4hPa Calm   7.0mph /  11.3km/h 24% 0.00in /  0mm 902.0 W/m2
14:39 87.3 °F /  30.7 °C 43.7 °F /  6.5 °C 29.87in /  1011.4hPa Calm   2.0mph /  3.2km/h 22% 0.00in /  0mm 882.0 W/m2
14:45 87.3 °F /  30.7 °C 45.0 °F /  7.2 °C 29.87in /  1011.4hPa Calm   2.0mph /  3.2km/h 23% 0.00in /  0mm 867.0 W/m2
14:51 87.4 °F /  30.8 °C 45.1 °F /  7.3 °C 29.86in /  1011.1hPa Calm   3.0mph /  4.8km/h 23% 0.00in /  0mm 868.0 W/m2
14:57 87.3 °F /  30.7 °C 45.0 °F /  7.2 °C 29.86in /  1011.1hPa West 0.9mph /  1.4km/h 4.0mph /  6.4km/h 23% 0.00in /  0mm 891.0 W/m2
15:03 86.7 °F /  30.4 °C 45.7 °F /  7.6 °C 29.86in /  1011.1hPa NE 2.9mph /  4.7km/h 8.0mph /  12.9km/h 24% 0.00in /  0mm 889.0 W/m2
15:10 87.1 °F /  30.6 °C 45.9 °F /  7.7 °C 29.86in /  1011.1hPa ESE 0.9mph /  1.4km/h 5.0mph /  8km/h 24% 0.00in /  0mm 243.0 W/m2
15:16 86.7 °F /  30.4 °C 45.7 °F /  7.6 °C 29.85in /  1010.7hPa WSW 0.9mph /  1.4km/h 7.0mph /  11.3km/h 24% 0.00in /  0mm 816.0 W/m2
15:22 86.5 °F /  30.3 °C 45.5 °F /  7.5 °C 29.85in /  1010.7hPa NE 0.9mph /  1.4km/h 3.0mph /  4.8km/h 24% 0.00in /  0mm 181.0 W/m2
15:28 86.4 °F /  30.2 °C 45.3 °F /  7.4 °C 29.85in /  1010.7hPa SE 2.0mph /  3.2km/h 6.0mph /  9.7km/h 24% 0.00in /  0mm 141.0 W/m2
15:34 85.6 °F /  29.8 °C 43.5 °F /  6.4 °C 29.85in /  1010.7hPa Calm   2.0mph /  3.2km/h 23% 0.00in /  0mm 139.0 W/m2
15:40 85.3 °F /  29.6 °C 43.3 °F /  6.3 °C 29.85in /  1010.7hPa Calm   2.0mph /  3.2km/h 23% 0.00in /  0mm 162.0 W/m2
15:53 84.0 °F /  28.9 °C 54.1 °F /  12.3 °C 29.85in /  1010.7hPa North 2.9mph /  4.7km/h 5.0mph /  8km/h 36% 0.00in /  0mm 758.0 W/m2
15:59 83.7 °F /  28.7 °C 55.4 °F /  13 °C 29.85in /  1010.7hPa East 4.0mph /  6.4km/h 13.0mph /  20.9km/h 38% 0.00in /  0mm 218.0 W/m2
16:05 83.1 °F /  28.4 °C 56.3 °F /  13.5 °C 29.85in /  1010.7hPa Calm   6.0mph /  9.7km/h 40% 0.00in /  0mm 631.0 W/m2
16:11 83.7 °F /  28.7 °C 55.4 °F /  13 °C 29.85in /  1010.7hPa WSW 0.9mph /  1.4km/h 2.0mph /  3.2km/h 38% 0.00in /  0mm 591.0 W/m2
16:17 83.8 °F /  28.8 °C 54.9 °F /  12.7 °C 29.85in /  1010.7hPa Calm   3.0mph /  4.8km/h 37% 0.00in /  0mm 555.0 W/m2
16:23 83.8 °F /  28.8 °C 54.9 °F /  12.7 °C 29.84in /  1010.4hPa NW 0.9mph /  1.4km/h 6.0mph /  9.7km/h 37% 0.00in /  0mm 534.0 W/m2
16:29 84.6 °F /  29.2 °C 54.0 °F /  12.2 °C 29.84in /  1010.4hPa NNW 2.9mph /  4.7km/h 6.0mph /  9.7km/h 35% 0.00in /  0mm 519.0 W/m2
16:36 84.9 °F /  29.4 °C 53.4 °F /  11.9 °C 29.84in /  1010.4hPa NNE 0.9mph /  1.4km/h 9.0mph /  14.5km/h 34% 0.00in /  0mm 490.0 W/m2
16:42 84.9 °F /  29.4 °C 54.1 °F /  12.3 °C 29.84in /  1010.4hPa WSW 0.9mph /  1.4km/h 3.0mph /  4.8km/h 35% 0.00in /  0mm 473.0 W/m2
16:48 85.3 °F /  29.6 °C 54.5 °F /  12.5 °C 29.84in /  1010.4hPa SW 0.9mph /  1.4km/h 4.0mph /  6.4km/h 35% 0.00in /  0mm 441.0 W/m2
16:54 85.3 °F /  29.6 °C 53.8 °F /  12.1 °C 29.84in /  1010.4hPa Calm   5.0mph /  8km/h 34% 0.00in /  0mm 420.0 W/m2
17:00 84.9 °F /  29.4 °C 53.4 °F /  11.9 °C 29.84in /  1010.4hPa NW 2.0mph /  3.2km/h 3.0mph /  4.8km/h 34% 0.00in /  0mm 399.0 W/m2
17:06 84.9 °F /  29.4 °C 53.4 °F /  11.9 °C 29.84in /  1010.4hPa NNW 0.9mph /  1.4km/h 3.0mph /  4.8km/h 34% 0.00in /  0mm 376.0 W/m2
17:12 85.5 °F /  29.7 °C 54.0 °F /  12.2 °C 29.83in /  1010hPa NW 0.9mph /  1.4km/h 2.0mph /  3.2km/h 34% 0.00in /  0mm 353.0 W/m2
17:21 85.3 °F /  29.6 °C 52.2 °F /  11.2 °C 29.83in /  1010hPa North 2.9mph /  4.7km/h 5.0mph /  8km/h 32% 0.00in /  0mm 338.0 W/m2
17:27 84.4 °F /  29.1 °C 52.9 °F /  11.6 °C 29.83in /  1010hPa Calm   1.0mph /  1.6km/h 34% 0.00in /  0mm 49.0 W/m2
17:33 83.8 °F /  28.8 °C 53.2 °F /  11.8 °C 29.83in /  1010hPa Calm     35% 0.00in /  0mm 288.0 W/m2
17:39 84.2 °F /  29 °C 52.7 °F /  11.5 °C 29.83in /  1010hPa WSW 0.9mph /  1.4km/h 1.0mph /  1.6km/h 34% 0.00in /  0mm 134.0 W/m2
17:45 84.6 °F /  29.2 °C 52.3 °F /  11.3 °C 29.83in /  1010hPa Calm   1.0mph /  1.6km/h 33% 0.00in /  0mm 172.0 W/m2
17:52 84.4 °F /  29.1 °C 52.9 °F /  11.6 °C 29.83in /  1010hPa Calm     34% 0.00in /  0mm 54.0 W/m2
17:58 83.8 °F /  28.8 °C 52.5 °F /  11.4 °C 29.83in /  1010hPa NNW 2.0mph /  3.2km/h 2.0mph /  3.2km/h 34% 0.00in /  0mm 127.0 W/m2
18:04 83.1 °F /  28.4 °C 50.2 °F /  10.1 °C 29.83in /  1010hPa Calm   1.0mph /  1.6km/h 32% 0.00in /  0mm 142.0 W/m2
18:10 82.9 °F /  28.3 °C 50.9 °F /  10.5 °C 29.83in /  1010hPa Calm   2.0mph /  3.2km/h 33% 0.00in /  0mm 21.0 W/m2
18:16 82.8 °F /  28.2 °C 53.1 °F /  11.7 °C 29.83in /  1010hPa Calm     36% 0.00in /  0mm 18.0 W/m2
18:22 82.2 °F /  27.9 °C 52.5 °F /  11.4 °C 29.83in /  1010hPa Calm     36% 0.00in /  0mm 23.0 W/m2
18:28 81.7 °F /  27.6 °C 52.2 °F /  11.2 °C 29.83in /  1010hPa Calm   1.0mph /  1.6km/h 36% 0.00in /  0mm 21.0 W/m2
18:34 81.1 °F /  27.3 °C 52.3 °F /  11.3 °C 29.83in /  1010hPa Calm   1.0mph /  1.6km/h 37% 0.00in /  0mm 18.0 W/m2
18:40 80.8 °F /  27.1 °C 50.5 °F /  10.3 °C 29.83in /  1010hPa Calm     35% 0.00in /  0mm 16.0 W/m2
18:47 80.4 °F /  26.9 °C 51.8 °F /  11 °C 29.83in /  1010hPa Calm     37% 0.00in /  0mm 11.0 W/m2
18:53 79.9 °F /  26.6 °C 52.7 °F /  11.5 °C 29.83in /  1010hPa Calm     39% 0.00in /  0mm 7.0 W/m2
18:59 79.3 °F /  26.3 °C 52.9 °F /  11.6 °C 29.83in /  1010hPa Calm     40% 0.00in /  0mm 0.0 W/m2
19:05 78.6 °F /  25.9 °C 52.3 °F /  11.3 °C 29.83in /  1010hPa Calm     40% 0.00in /  0mm 0.0 W/m2
19:11 78.1 °F /  25.6 °C 53.1 °F /  11.7 °C 29.83in /  1010hPa Calm     42% 0.00in /  0mm 0.0 W/m2
19:17 77.4 °F /  25.2 °C 52.5 °F /  11.4 °C 29.84in /  1010.4hPa Calm     42% 0.00in /  0mm 0.0 W/m2
19:23 76.6 °F /  24.8 °C 53.1 °F /  11.7 °C 29.84in /  1010.4hPa Calm     44% 0.00in /  0mm 0.0 W/m2
19:30 75.9 °F /  24.4 °C 53.1 °F /  11.7 °C 29.84in /  1010.4hPa Calm     45% 0.00in /  0mm 0.0 W/m2
19:36 75.4 °F /  24.1 °C 53.2 °F /  11.8 °C 29.85in /  1010.7hPa Calm     46% 0.00in /  0mm 0.0 W/m2
19:42 74.7 °F /  23.7 °C 53.1 °F /  11.7 °C 29.85in /  1010.7hPa Calm     47% 0.00in /  0mm 0.0 W/m2
19:48 73.9 °F /  23.3 °C 52.5 °F /  11.4 °C 29.85in /  1010.7hPa ENE 0.9mph /  1.4km/h 2.0mph /  3.2km/h 47% 0.00in /  0mm 0.0 W/m2
19:54 73.6 °F /  23.1 °C 53.2 °F /  11.8 °C 29.86in /  1011.1hPa Calm   1.0mph /  1.6km/h 49% 0.00in /  0mm 0.0 W/m2
20:00 73.0 °F /  22.8 °C 53.2 °F /  11.8 °C 29.86in /  1011.1hPa Calm   2.0mph /  3.2km/h 50% 0.00in /  0mm 0.0 W/m2
20:07 72.7 °F /  22.6 °C 53.4 °F /  11.9 °C 29.86in /  1011.1hPa Calm     51% 0.00in /  0mm 0.0 W/m2
20:13 72.1 °F /  22.3 °C 53.1 °F /  11.7 °C 29.86in /  1011.1hPa Calm   1.0mph /  1.6km/h 51% 0.00in /  0mm 0.0 W/m2
20:19 72.0 °F /  22.2 °C 53.4 °F /  11.9 °C 29.86in /  1011.1hPa Calm     52% 0.00in /  0mm 0.0 W/m2
20:25 71.4 °F /  21.9 °C 52.9 °F /  11.6 °C 29.86in /  1011.1hPa Calm     52% 0.00in /  0mm 0.0 W/m2
20:31 71.1 °F /  21.7 °C 53.1 °F /  11.7 °C 29.86in /  1011.1hPa Calm     53% 0.00in /  0mm 0.0 W/m2
20:37 70.9 °F /  21.6 °C 53.4 °F /  11.9 °C 29.86in /  1011.1hPa Calm   1.0mph /  1.6km/h 54% 0.00in /  0mm 0.0 W/m2
20:44 70.5 °F /  21.4 °C 53.6 °F /  12 °C 29.87in /  1011.4hPa Calm     55% 0.00in /  0mm 0.0 W/m2
20:50 70.2 °F /  21.2 °C 53.2 °F /  11.8 °C 29.87in /  1011.4hPa Calm   1.0mph /  1.6km/h 55% 0.00in /  0mm 0.0 W/m2
20:56 70.0 °F /  21.1 °C 53.1 °F /  11.7 °C 29.87in /  1011.4hPa Calm     55% 0.00in /  0mm 0.0 W/m2
21:02 69.6 °F /  20.9 °C 53.2 °F /  11.8 °C 29.87in /  1011.4hPa ESE 2.0mph /  3.2km/h 2.0mph /  3.2km/h 56% 0.00in /  0mm 0.0 W/m2
21:08 69.4 °F /  20.8 °C 53.1 °F /  11.7 °C 29.88in /  1011.7hPa Calm     56% 0.00in /  0mm 0.0 W/m2
21:14 69.1 °F /  20.6 °C 53.6 °F /  12 °C 29.88in /  1011.7hPa ENE 2.0mph /  3.2km/h 4.0mph /  6.4km/h 58% 0.00in /  0mm 0.0 W/m2
21:20 68.7 °F /  20.4 °C 53.8 °F /  12.1 °C 29.88in /  1011.7hPa Calm   2.0mph /  3.2km/h 59% 0.00in /  0mm 0.0 W/m2
21:27 68.5 °F /  20.3 °C 54.1 °F /  12.3 °C 29.88in /  1011.7hPa Calm   2.0mph /  3.2km/h 60% 0.00in /  0mm 0.0 W/m2
21:33 68.5 °F /  20.3 °C 54.1 °F /  12.3 °C 29.88in /  1011.7hPa Calm   2.0mph /  3.2km/h 60% 0.00in /  0mm 0.0 W/m2
21:35 68.4 °F /  20.2 °C 54.0 °F /  12.2 °C 29.88in /  1011.7hPa Calm   3.0mph /  4.8km/h 60% 0.00in /  0mm 0.0 W/m2
21:41 68.4 °F /  20.2 °C 54.3 °F /  12.4 °C 29.89in /  1012.1hPa Calm   4.0mph /  6.4km/h 61% 0.00in /  0mm 0.0 W/m2
21:45 68.2 °F /  20.1 °C 54.1 °F /  12.3 °C 29.89in /  1012.1hPa Calm   2.0mph /  3.2km/h 61% 0.00in /  0mm 0.0 W/m2
21:47 68.2 °F /  20.1 °C 54.1 °F /  12.3 °C 29.89in /  1012.1hPa Calm   1.0mph /  1.6km/h 61% 0.00in /  0mm 0.0 W/m2
21:51 68.0 °F /  20 °C 54.0 °F /  12.2 °C 29.89in /  1012.1hPa Calm   1.0mph /  1.6km/h 61% 0.00in /  0mm 0.0 W/m2
21:57 67.8 °F /  19.9 °C 54.0 °F /  12.2 °C 29.90in /  1012.4hPa Calm   1.0mph /  1.6km/h 61% 0.00in /  0mm 0.0 W/m2
22:05 67.5 °F /  19.7 °C 54.0 °F /  12.2 °C 29.90in /  1012.4hPa Calm   1.0mph /  1.6km/h 62% 0.00in /  0mm 0.0 W/m2
22:11 67.3 °F /  19.6 °C 53.8 °F /  12.1 °C 29.90in /  1012.4hPa Calm     62% 0.00in /  0mm 0.0 W/m2
22:13 67.3 °F /  19.6 °C 53.8 °F /  12.1 °C 29.90in /  1012.4hPa Calm     62% 0.00in /  0mm 0.0 W/m2
22:15 67.3 °F /  19.6 °C 53.8 °F /  12.1 °C 29.90in /  1012.4hPa Calm     62% 0.00in /  0mm 0.0 W/m2
22:17 67.1 °F /  19.5 °C 53.6 °F /  12 °C 29.90in /  1012.4hPa Calm     62% 0.00in /  0mm 0.0 W/m2
22:24 66.9 °F /  19.4 °C 54.0 °F /  12.2 °C 29.90in /  1012.4hPa Calm   1.0mph /  1.6km/h 63% 0.00in /  0mm 0.0 W/m2
22:30 66.7 °F /  19.3 °C 53.8 °F /  12.1 °C 29.90in /  1012.4hPa Calm     63% 0.00in /  0mm 0.0 W/m2
22:36 66.6 °F /  19.2 °C 53.6 °F /  12 °C 29.90in /  1012.4hPa Calm     63% 0.00in /  0mm 0.0 W/m2
22:42 66.6 °F /  19.2 °C 53.6 °F /  12 °C 29.91in /  1012.8hPa Calm     63% 0.00in /  0mm 0.0 W/m2
22:44 66.6 °F /  19.2 °C 53.6 °F /  12 °C 29.91in /  1012.8hPa Calm     63% 0.00in /  0mm 0.0 W/m2
22:50 66.4 °F /  19.1 °C 53.8 °F /  12.1 °C 29.91in /  1012.8hPa Calm   2.0mph /  3.2km/h 64% 0.00in /  0mm 0.0 W/m2
22:56 66.0 °F /  18.9 °C 54.0 °F /  12.2 °C 29.91in /  1012.8hPa ESE 2.9mph /  4.7km/h 3.0mph /  4.8km/h 65% 0.00in /  0mm 0.0 W/m2
23:03 65.8 °F /  18.8 °C 53.8 °F /  12.1 °C 29.91in /  1012.8hPa Calm   2.0mph /  3.2km/h 65% 0.00in /  0mm 0.0 W/m2
23:09 65.7 °F /  18.7 °C 53.6 °F /  12 °C 29.91in /  1012.8hPa ESE 2.0mph /  3.2km/h 5.0mph /  8km/h 65% 0.00in /  0mm 0.0 W/m2
23:13 65.7 °F /  18.7 °C 54.0 °F /  12.2 °C 29.91in /  1012.8hPa Calm   2.0mph /  3.2km/h 66% 0.00in /  0mm 0.0 W/m2
23:19 65.5 °F /  18.6 °C 53.8 °F /  12.1 °C 29.90in /  1012.4hPa Calm   2.0mph /  3.2km/h 66% 0.00in /  0mm 0.0 W/m2
23:25 65.3 °F /  18.5 °C 53.2 °F /  11.8 °C 29.91in /  1012.8hPa Calm   1.0mph /  1.6km/h 65% 0.00in /  0mm 0.0 W/m2
23:31 65.1 °F /  18.4 °C 53.4 °F /  11.9 °C 29.90in /  1012.4hPa Calm   1.0mph /  1.6km/h 66% 0.00in /  0mm 0.0 W/m2
23:38 64.9 °F /  18.3 °C 53.2 °F /  11.8 °C 29.90in /  1012.4hPa Calm     66% 0.00in /  0mm 0.0 W/m2
23:43 64.8 °F /  18.2 °C 53.1 °F /  11.7 °C 29.90in /  1012.4hPa Calm   2.0mph /  3.2km/h 66% 0.00in /  0mm 0.0 W/m2
23:49 64.8 °F /  18.2 °C 53.1 °F /  11.7 °C 29.90in /  1012.4hPa Calm     66% 0.00in /  0mm 0.0 W/m2
23:56 64.6 °F /  18.1 °C 52.9 °F /  11.6 °C 29.90in /  1012.4hPa SE 2.0mph /  3.2km/h 2.0mph /  3.2km/h 66% 0.00in /  0mm 0.0 W/m2
Olympia, Windhoek, Namibia
Compliments of Weather Underground - 3 mb